タシュケント の空港の天気 - METARとTAF

タシケント空港 ( UTTT / TAS ) - ウズベキスタン タシュケント
飛行場実況気象(Metar)
観測時間05/25 15:00 +05 (05/25 10:00 UTC)
風向・風速北 7m/s
視程10km以上
天気現象
少しの雲 雲底高度 2010m
気温33℃
湿度28%
気圧1010hPa
METARUTTT 251000Z 36014KT 340V040 9999 FEW066CB 33/12 Q1010 R08R/CLRD70 NOSIG
過去の天気等 Google飛行場航空写真 Wunderground天気予報

過去48時間のMETAR

飛行場予報(TAF)
発表時間: 5/25 10:00 +05 (5/25 05:00 UTC)
予報対象時間: 25日11時 +05 ~ 26日11時 +05
風向・風速北西 6m/s
視程7,000m
少しの積乱雲 雲底高度 2,010m
全天の4割程度の雲 雲底高度 3,050m
25日17時 +05 ~ 26日5時 +05 に 確率 40% で一時的に
風向・風速不定 8m/s 瞬間風速 13m/s
天気現象弱い雷雨
全天の4割程度の積乱雲 雲底高度 1,830m
全天の8割程度の雲 雲底高度 3,050m
TAF UTTT 250500Z 2506/2606 31012KT 7000 FEW066CB SCT100 TX36/2510Z
PROB40 TEMPO 2512/2524 VRB15G25KT -TSRA SCT060CB BKN100